• Join FlightAware (Why Join?)
  • Login
  • US Flag 
02:18AM EDT


 

Airport Tracker/Info


-or-


 

Live Flight TrackerFlight Track Log ✈ UAL582 ✈ 23-Apr-2013 ✈ CYYZ - KORD

Flight Track Log - Related Links

Times and Time Zones

All times are in EDT time to prevent confusion due to time zone crossing. See the UAL582 flight status page for this flight to view local times or setup timezone preferences in your user account.

Time Position Orientation Groundspeed Altitude Reporting Facility
EDT Latitude Longitude Course Direction KTS MPH feet Rate Location/Type
06:26PM 43.6833 -79.5667 47° Northeast 170 196 1,900  Level Toronto Center
06:27PM 43.7167 -79.5167 47° Northeast 190 219 3,400 1,920 Climbing Toronto Center
06:28PM 43.7833 -79.5167 360° North 260 299 5,800 2,700 Climbing Toronto Center
06:30PM 43.8000 -79.7000 277° West 280 322 11,600 2,580 Climbing Toronto Center
06:31PM 43.7833 -79.8333 260° West 330 380 13,700 2,400 Climbing Toronto Center
06:32PM 43.7833 -79.9833 270° West 360 414 16,400 2,700 Climbing Toronto Center
06:33PM 43.7667 -80.1000 259° West 360 414 19,100 2,640 Climbing Toronto Center
06:34PM 43.7667 -80.2500 270° West 370 426 21,700 2,100 Climbing Toronto Center
06:35PM 43.7333 -80.3667 248° West 350 403 23,300 1,620 Climbing Toronto Center
06:36PM 43.6833 -80.5167 245° Southwest 360 414 25,000 1,800 Climbing Toronto Center
06:37PM 43.6333 -80.6167 235° Southwest 360 414 26,900 1,860 Climbing Toronto Center
06:38PM 43.6167 -80.7667 261° West 370 426 28,800 2,100 Climbing Toronto Center
06:39PM 43.5667 -80.8833 239° Southwest 360 414 31,100 2,100 Climbing Toronto Center
06:40PM 43.4667 -80.9500 206° Southwest 380 437 33,000 1,920 Climbing Toronto Center
06:41PM 43.3667 -80.9833 194° South 370 426 35,000 1,500 Climbing Toronto Center
06:42PM 43.2667 -81.0333 200° South 370 426 36,000 480 Climbing Toronto Center
06:43PM 43.1667 -81.1000 206° Southwest 380 437 36,000  Level Toronto Center
06:44PM 43.0833 -81.1333 196° South 380 437 36,000  Level Toronto Center
06:45PM 43.0333 -81.2500 240° Southwest 340 391 36,000  Level Toronto Center
06:46PM 43.0333 -81.3833 270° West 330 380 36,000  Level Toronto Center
06:47PM 43.0333 -81.5000 270° West 340 391 36,000  Level Toronto Center
06:48PM 43.0333 -81.6333 270° West 350 403 36,000  Level Toronto Center
06:49PM 43.0333 -81.7833 270° West 350 403 36,000  Level Toronto Center
06:50PM 43.0167 -81.9167 260° West 350 403 36,000  Level Toronto Center
06:51PM 43.0167 -82.0500 270° West 350 403 36,000  Level Toronto Center
06:52PM 43.0167 -82.1833 270° West 350 403 36,000  Level Toronto Center
06:53PM 43.0167 -82.3000 270° West 350 403 36,000  Level Toronto Center
06:54PM 43.0167 -82.4667 270° West 350 403 36,000  Level Toronto Center
06:55PM 43.0000 -82.5667 257° West 340 391 36,000  Level Toronto Center
06:56PM 42.9833 -82.7167 261° West 340 391 36,000  Level Toronto Center
06:56PM 43.0069 -82.7436 320° Northwest 346 398 36,000  Level Cleveland Center
06:57PM 43.0022 -82.8714 267° West 346 398 36,000  Level Cleveland Center
06:58PM 42.9956 -82.9989 266° West 346 398 36,000  Level Cleveland Center
06:59PM 42.9928 -83.1264 268° West 346 398 36,000  Level Cleveland Center
07:00PM 42.9858 -83.2511 266° West 346 398 36,000  Level Cleveland Center
07:01PM 42.9806 -83.3786 267° West 346 398 36,000  Level Cleveland Center
07:02PM 42.9775 -83.5061 268° West 346 398 36,000 -300 Level Cleveland Center
07:03PM 43.0014 -83.6294 285° West 346 398 35,500 -780 Descending Cleveland Center
07:04PM 43.0272 -83.7528 286° West 341 392 34,500 -1,020 Descending Cleveland Center
07:05PM 43.0467 -83.8844 281° West 346 398 33,500 -1,020 Descending Cleveland Center
07:06PM 43.0178 -84.0108 253° West 341 392 32,500 -780 Descending Cleveland Center
07:07PM 42.9847 -84.1394 251° West 351 404 32,000 -240 Descending Cleveland Center
07:09PM 42.9167 -84.3667 248° West 360 414 32,000  Level Toronto Center
07:10PM 42.9153 -84.4481 269° West 356 410 32,000  Level Chicago Center
07:11PM 42.8853 -84.5775 252° West 358 412 32,000  Level Chicago Center
07:12PM 42.8678 -84.7389 262° West 361 415 32,000  Level Chicago Center
07:13PM 42.8539 -84.8731 262° West 358 412 32,000  Level Chicago Center
07:14PM 42.8403 -85.0072 262° West 358 412 32,000  Level Chicago Center
07:15PM 42.8253 -85.1408 261° West 358 412 32,000  Level Chicago Center
07:16PM 42.8106 -85.2747 262° West 357 411 32,000  Level Chicago Center
07:17PM 42.7958 -85.4125 262° West 359 413 32,000 -300 Level Chicago Center
07:18PM 42.7744 -85.5700 260° West 359 413 31,400 -840 Descending Chicago Center
07:19PM 42.7489 -85.7061 256° West 366 421 30,300 -1,740 Descending Chicago Center
07:20PM 42.7247 -85.8408 256° West 366 421 27,900 -2,340 Descending Chicago Center
07:21PM 42.7000 -85.9733 256° West 362 417 25,500 -2,340 Descending Chicago Center
07:22PM 42.6767 -86.1019 256° West 353 406 23,100 -2,460 Descending Chicago Center
07:23PM 42.6542 -86.2247 256° West 338 389 20,500 -1,500 Descending Chicago Center
07:24PM 42.6325 -86.3414 256° West 323 372 20,000 -840 Descending Chicago Center
07:25PM 42.6103 -86.4569 255° West 318 366 18,800 -1,620 Descending Chicago Center
07:26PM 42.5842 -86.5978 256° West 321 369 16,700 -1,920 Descending Chicago Center
07:27PM 42.5628 -86.7125 256° West 316 364 14,900 -1,800 Descending Chicago Center
07:28PM 42.5353 -86.8189 251° West 301 346 13,100 -1,800 Descending Chicago Center
07:29PM 42.5072 -86.9203 249° West 296 341 11,300 -1,560 Descending Chicago Center
07:30PM 42.4792 -87.0225 250° West 292 336 10,000 -660 Descending Chicago Center
07:31PM 42.4511 -87.1228 249° West 288 331 10,000 -720 Level Chicago Center
07:33PM 42.4219 -87.2264 249° West 252 290 8,600 -1,200 Descending Chicago Center
07:34PM 42.3989 -87.3142 250° West 248 285 7,600 -1,020 Descending Chicago Center
07:35PM 42.3764 -87.3967 250° West 249 287 6,600 -780 Descending Chicago Center
07:36PM 42.3464 -87.5022 249° West 255 293 6,000 -300 Descending Chicago Center
07:37PM 42.3058 -87.5544 224° Southwest 257 296 6,000  Level Chicago Center
07:38PM 42.2236 -87.5436 174° South 247 284 6,000 -540 Level Chicago Center
07:39PM 42.1642 -87.5381 176° South 219 252 5,000 -1,020 Descending Chicago Center
07:40PM 42.1167 -87.4833 139° Southeast 215 247 4,100 -600 Descending Chicago TRACON
07:41PM 42.0667 -87.4667 166° South 195 224 4,000 -60 Descending Chicago TRACON
07:42PM 42.0167 -87.4667 180° South 194 223 4,000  Level Chicago TRACON
07:44PM 41.9833 -87.5500 242° Southwest 161 185 4,000 -60 Level Chicago TRACON
07:46PM 41.9833 -87.6667 270° West 160 184 3,900 -360 Descending Chicago TRACON
07:47PM 41.9833 -87.7333 270° West 165 190 3,000 -900 Descending Chicago TRACON